sensor_id;sensor_type;location;lat;lon;timestamp;pressure;altitude;pressure_sealevel;temperature;humidity
71915;BME280;60387;49.994;14.660;2022-08-11T00:01:32;98440.81;;;19.23;43.76
71915;BME280;60387;49.994;14.660;2022-08-11T00:04:05;98428.72;;;19.15;44.13
71915;BME280;60387;49.994;14.660;2022-08-11T00:06:39;98445.03;;;19.20;43.69
71915;BME280;60387;49.994;14.660;2022-08-11T00:09:20;98431.03;;;19.13;43.66
71915;BME280;60387;49.994;14.660;2022-08-11T00:11:54;98438.13;;;19.14;43.86
71915;BME280;60387;49.994;14.660;2022-08-11T00:14:31;98442.34;;;19.12;44.07
71915;BME280;60387;49.994;14.660;2022-08-11T00:17:08;98434.78;;;19.09;43.99
71915;BME280;60387;49.994;14.660;2022-08-11T00:19:44;98441.41;;;19.08;44.06
71915;BME280;60387;49.994;14.660;2022-08-11T00:22:19;98427.44;;;19.01;44.57
71915;BME280;60387;49.994;14.660;2022-08-11T00:24:53;98442.44;;;19.03;44.00
71915;BME280;60387;49.994;14.660;2022-08-11T00:27:33;98434.06;;;19.00;43.99
71915;BME280;60387;49.994;14.660;2022-08-11T00:30:09;98432.00;;;18.97;43.98
71915;BME280;60387;49.994;14.660;2022-08-11T00:32:51;98441.03;;;18.97;44.40
71915;BME280;60387;49.994;14.660;2022-08-11T00:35:27;98429.47;;;18.92;44.41
71915;BME280;60387;49.994;14.660;2022-08-11T00:38:02;98433.34;;;18.91;44.39
71915;BME280;60387;49.994;14.660;2022-08-11T00:40:43;98434.13;;;18.91;44.30
71915;BME280;60387;49.994;14.660;2022-08-11T00:43:40;98441.91;;;18.89;44.83
71915;BME280;60387;49.994;14.660;2022-08-11T00:49:12;98426.00;;;18.83;44.63
71915;BME280;60387;49.994;14.660;2022-08-11T00:52:09;98433.78;;;18.81;43.94
71915;BME280;60387;49.994;14.660;2022-08-11T00:57:55;98435.44;;;18.73;43.81
71915;BME280;60387;49.994;14.660;2022-08-11T01:07:05;98439.81;;;18.54;44.32
71915;BME280;60387;49.994;14.660;2022-08-11T01:18:15;98425.59;;;18.11;44.13
71915;BME280;60387;49.994;14.660;2022-08-11T01:33:26;98436.03;;;17.51;45.21
71915;BME280;60387;49.994;14.660;2022-08-11T01:39:31;98444.63;;;17.32;45.20
71915;BME280;60387;49.994;14.660;2022-08-11T01:45:11;98441.13;;;17.15;45.33
71915;BME280;60387;49.994;14.660;2022-08-11T01:48:09;98439.19;;;17.07;45.50
71915;BME280;60387;49.994;14.660;2022-08-11T01:51:01;98431.03;;;16.98;45.19
71915;BME280;60387;49.994;14.660;2022-08-11T01:56:37;98428.31;;;16.81;45.53
71915;BME280;60387;49.994;14.660;2022-08-11T01:59:24;98427.84;;;16.79;45.82
71915;BME280;60387;49.994;14.660;2022-08-11T02:04:39;98431.53;;;16.66;46.21
71915;BME280;60387;49.994;14.660;2022-08-11T02:10:22;98422.69;;;16.52;46.37
71915;BME280;60387;49.994;14.660;2022-08-11T02:16:18;98429.44;;;16.38;46.43
71915;BME280;60387;49.994;14.660;2022-08-11T02:19:23;98428.78;;;16.32;46.63
71915;BME280;60387;49.994;14.660;2022-08-11T02:25:20;98428.94;;;16.19;46.58
71915;BME280;60387;49.994;14.660;2022-08-11T02:28:00;98429.56;;;16.16;46.57
71915;BME280;60387;49.994;14.660;2022-08-11T02:30:38;98428.59;;;16.12;46.76
71915;BME280;60387;49.994;14.660;2022-08-11T02:33:21;98424.91;;;16.08;47.25
71915;BME280;60387;49.994;14.660;2022-08-11T02:36:02;98420.69;;;16.02;47.42
71915;BME280;60387;49.994;14.660;2022-08-11T02:38:59;98426.31;;;15.97;47.00
71915;BME280;60387;49.994;14.660;2022-08-11T02:47:14;98424.66;;;15.79;47.51
71915;BME280;60387;49.994;14.660;2022-08-11T02:50:22;98432.38;;;15.77;47.65
71915;BME280;60387;49.994;14.660;2022-08-11T02:53:24;98423.53;;;15.72;47.50
71915;BME280;60387;49.994;14.660;2022-08-11T02:56:07;98431.53;;;15.68;47.56
71915;BME280;60387;49.994;14.660;2022-08-11T03:01:30;98422.03;;;15.57;47.58
71915;BME280;60387;49.994;14.660;2022-08-11T03:04:24;98423.16;;;15.56;47.88
71915;BME280;60387;49.994;14.660;2022-08-11T03:07:08;98416.53;;;15.49;47.83
71915;BME280;60387;49.994;14.660;2022-08-11T03:09:54;98421.34;;;15.43;47.78
71915;BME280;60387;49.994;14.660;2022-08-11T03:18:55;98424.44;;;15.28;48.19
71915;BME280;60387;49.994;14.660;2022-08-11T03:24:42;98425.72;;;15.22;48.36
71915;BME280;60387;49.994;14.660;2022-08-11T03:33:22;98420.34;;;15.09;52.13
71915;BME280;60387;49.994;14.660;2022-08-11T03:41:40;98433.88;;;14.92;49.72
71915;BME280;60387;49.994;14.660;2022-08-11T03:50:14;98437.19;;;14.80;50.10
71915;BME280;60387;49.994;14.660;2022-08-11T03:58:33;98445.47;;;14.75;50.10
71915;BME280;60387;49.994;14.660;2022-08-11T04:07:16;98435.69;;;14.74;50.44
71915;BME280;60387;49.994;14.660;2022-08-11T04:16:28;98433.09;;;15.52;50.36
71915;BME280;60387;49.994;14.660;2022-08-11T04:45:19;98444.75;;;21.36;44.02
71915;BME280;60387;49.994;14.660;2022-08-11T04:48:18;98440.59;;;21.57;43.82
71915;BME280;60387;49.994;14.660;2022-08-11T04:57:05;98444.84;;;22.32;43.53
71915;BME280;60387;49.994;14.660;2022-08-11T05:13:33;98441.00;;;23.09;43.15
71915;BME280;60387;49.994;14.660;2022-08-11T05:16:09;98440.75;;;23.14;42.95
71915;BME280;60387;49.994;14.660;2022-08-11T05:18:51;98435.72;;;23.20;43.02
71915;BME280;60387;49.994;14.660;2022-08-11T05:21:25;98446.13;;;23.26;42.87
71915;BME280;60387;49.994;14.660;2022-08-11T05:24:07;98440.22;;;23.28;42.87
71915;BME280;60387;49.994;14.660;2022-08-11T05:26:46;98447.03;;;23.34;43.01
71915;BME280;60387;49.994;14.660;2022-08-11T05:29:26;98442.81;;;23.40;42.69
71915;BME280;60387;49.994;14.660;2022-08-11T05:32:04;98442.88;;;23.43;43.01
71915;BME280;60387;49.994;14.660;2022-08-11T05:34:47;98439.88;;;23.51;42.83
71915;BME280;60387;49.994;14.660;2022-08-11T05:37:32;98441.72;;;23.66;42.45
71915;BME280;60387;49.994;14.660;2022-08-11T05:40:09;98437.22;;;23.81;42.23
71915;BME280;60387;49.994;14.660;2022-08-11T05:42:48;98439.47;;;23.94;42.59
71915;BME280;60387;49.994;14.660;2022-08-11T05:45:22;98437.75;;;24.09;41.69
71915;BME280;60387;49.994;14.660;2022-08-11T05:47:57;98442.63;;;24.19;41.83
71915;BME280;60387;49.994;14.660;2022-08-11T05:50:31;98433.63;;;24.25;41.41
71915;BME280;60387;49.994;14.660;2022-08-11T05:53:08;98441.75;;;24.41;41.69
71915;BME280;60387;49.994;14.660;2022-08-11T05:55:43;98432.06;;;24.54;41.66
71915;BME280;60387;49.994;14.660;2022-08-11T05:58:17;98446.72;;;24.80;41.53
71915;BME280;60387;49.994;14.660;2022-08-11T06:00:51;98445.44;;;25.04;40.87
71915;BME280;60387;49.994;14.660;2022-08-11T06:03:27;98433.41;;;25.26;40.57
71915;BME280;60387;49.994;14.660;2022-08-11T06:06:07;98445.94;;;25.46;40.12
71915;BME280;60387;49.994;14.660;2022-08-11T06:08:41;98442.91;;;25.61;40.33
71915;BME280;60387;49.994;14.660;2022-08-11T06:11:15;98439.88;;;25.77;40.60
71915;BME280;60387;49.994;14.660;2022-08-11T06:13:49;98439.28;;;25.94;40.04
71915;BME280;60387;49.994;14.660;2022-08-11T06:16:24;98443.00;;;26.12;39.95
71915;BME280;60387;49.994;14.660;2022-08-11T06:18:59;98444.78;;;26.37;39.87
71915;BME280;60387;49.994;14.660;2022-08-11T06:21:33;98457.22;;;26.57;39.75
71915;BME280;60387;49.994;14.660;2022-08-11T06:24:11;98451.78;;;26.75;39.36
71915;BME280;60387;49.994;14.660;2022-08-11T06:26:50;98461.41;;;26.95;39.33
71915;BME280;60387;49.994;14.660;2022-08-11T06:29:25;98453.59;;;27.18;39.53
71915;BME280;60387;49.994;14.660;2022-08-11T06:32:00;98460.81;;;27.33;38.73
71915;BME280;60387;49.994;14.660;2022-08-11T06:35:04;98460.41;;;27.41;38.58
71915;BME280;60387;49.994;14.660;2022-08-11T06:40:50;98468.03;;;27.58;38.28
71915;BME280;60387;49.994;14.660;2022-08-11T06:43:27;98466.84;;;27.69;38.18
71915;BME280;60387;49.994;14.660;2022-08-11T06:46:07;98468.09;;;27.86;37.40
71915;BME280;60387;49.994;14.660;2022-08-11T06:48:42;98471.28;;;28.02;36.80
71915;BME280;60387;49.994;14.660;2022-08-11T06:51:17;98470.09;;;28.13;37.37
71915;BME280;60387;49.994;14.660;2022-08-11T06:53:53;98468.53;;;28.26;36.40
71915;BME280;60387;49.994;14.660;2022-08-11T06:56:37;98466.53;;;28.41;36.09
71915;BME280;60387;49.994;14.660;2022-08-11T06:59:14;98467.31;;;28.52;36.27
71915;BME280;60387;49.994;14.660;2022-08-11T07:04:52;98468.88;;;28.70;34.79
71915;BME280;60387;49.994;14.660;2022-08-11T07:13:41;98474.03;;;28.79;35.52
71915;BME280;60387;49.994;14.660;2022-08-11T07:16:30;98472.03;;;28.93;34.57
71915;BME280;60387;49.994;14.660;2022-08-11T07:19:06;98472.81;;;28.90;33.58
71915;BME280;60387;49.994;14.660;2022-08-11T07:21:40;98472.06;;;28.65;34.16
71915;BME280;60387;49.994;14.660;2022-08-11T07:24:18;98466.13;;;28.49;34.31
71915;BME280;60387;49.994;14.660;2022-08-11T07:26:54;98464.16;;;28.43;35.17
71915;BME280;60387;49.994;14.660;2022-08-11T07:29:30;98468.13;;;28.35;33.73
71915;BME280;60387;49.994;14.660;2022-08-11T07:32:14;98468.13;;;28.10;33.97
71915;BME280;60387;49.994;14.660;2022-08-11T07:34:54;98470.47;;;27.84;34.64
71915;BME280;60387;49.994;14.660;2022-08-11T07:37:30;98471.22;;;27.70;34.86
71915;BME280;60387;49.994;14.660;2022-08-11T07:40:06;98463.69;;;27.71;35.78
71915;BME280;60387;49.994;14.660;2022-08-11T07:42:39;98483.97;;;27.71;35.24
71915;BME280;60387;49.994;14.660;2022-08-11T07:45:13;98474.75;;;27.50;34.85
71915;BME280;60387;49.994;14.660;2022-08-11T07:47:46;98471.09;;;27.22;35.16
71915;BME280;60387;49.994;14.660;2022-08-11T07:50:20;98471.00;;;27.08;35.52
71915;BME280;60387;49.994;14.660;2022-08-11T07:52:55;98472.25;;;27.14;36.00
71915;BME280;60387;49.994;14.660;2022-08-11T07:55:30;98471.94;;;27.33;35.68
71915;BME280;60387;49.994;14.660;2022-08-11T07:58:04;98471.97;;;27.46;35.34
71915;BME280;60387;49.994;14.660;2022-08-11T08:00:41;98462.44;;;27.54;34.04
71915;BME280;60387;49.994;14.660;2022-08-11T08:03:15;98466.81;;;27.55;34.97
71915;BME280;60387;49.994;14.660;2022-08-11T08:05:49;98464.03;;;27.55;34.40
71915;BME280;60387;49.994;14.660;2022-08-11T08:08:24;98469.22;;;27.60;33.65
71915;BME280;60387;49.994;14.660;2022-08-11T08:10:58;98468.81;;;27.55;33.67
71915;BME280;60387;49.994;14.660;2022-08-11T08:13:33;98470.34;;;27.38;33.92
71915;BME280;60387;49.994;14.660;2022-08-11T08:16:07;98469.13;;;27.22;33.38
71915;BME280;60387;49.994;14.660;2022-08-11T08:18:40;98465.41;;;27.01;33.10
71915;BME280;60387;49.994;14.660;2022-08-11T08:21:14;98458.22;;;26.93;34.19
71915;BME280;60387;49.994;14.660;2022-08-11T08:23:48;98464.91;;;26.78;33.90
71915;BME280;60387;49.994;14.660;2022-08-11T08:26:21;98466.00;;;26.66;34.13
71915;BME280;60387;49.994;14.660;2022-08-11T08:28:56;98453.72;;;26.64;34.48
71915;BME280;60387;49.994;14.660;2022-08-11T08:31:30;98457.28;;;26.64;34.80
71915;BME280;60387;49.994;14.660;2022-08-11T08:34:03;98459.72;;;26.73;34.31
71915;BME280;60387;49.994;14.660;2022-08-11T08:36:38;98452.59;;;26.82;34.11
71915;BME280;60387;49.994;14.660;2022-08-11T08:39:12;98454.22;;;26.90;34.43
71915;BME280;60387;49.994;14.660;2022-08-11T08:41:52;98457.50;;;27.10;34.03
71915;BME280;60387;49.994;14.660;2022-08-11T08:44:26;98454.78;;;27.17;33.34
71915;BME280;60387;49.994;14.660;2022-08-11T08:47:03;98460.78;;;27.26;33.61
71915;BME280;60387;49.994;14.660;2022-08-11T08:49:40;98453.66;;;27.38;33.16
71915;BME280;60387;49.994;14.660;2022-08-11T08:52:19;98450.53;;;27.57;32.84
71915;BME280;60387;49.994;14.660;2022-08-11T08:54:55;98463.72;;;27.88;32.98
71915;BME280;60387;49.994;14.660;2022-08-11T08:57:32;98461.75;;;28.13;31.65
71915;BME280;60387;49.994;14.660;2022-08-11T09:00:07;98454.59;;;28.33;31.42
71915;BME280;60387;49.994;14.660;2022-08-11T09:02:42;98462.56;;;28.45;30.93
71915;BME280;60387;49.994;14.660;2022-08-11T09:05:18;98458.56;;;28.53;31.11
71915;BME280;60387;49.994;14.660;2022-08-11T09:07:53;98455.31;;;28.72;30.41
71915;BME280;60387;49.994;14.660;2022-08-11T09:10:28;98455.69;;;28.88;29.94
71915;BME280;60387;49.994;14.660;2022-08-11T09:13:03;98458.47;;;28.88;28.70
71915;BME280;60387;49.994;14.660;2022-08-11T09:15:39;98440.56;;;28.79;29.96
71915;BME280;60387;49.994;14.660;2022-08-11T09:18:16;98455.31;;;28.79;30.06
71915;BME280;60387;49.994;14.660;2022-08-11T09:20:50;98445.34;;;28.85;29.39
71915;BME280;60387;49.994;14.660;2022-08-11T09:23:25;98455.28;;;28.86;29.09
71915;BME280;60387;49.994;14.660;2022-08-11T09:25:59;98442.56;;;28.85;29.55
71915;BME280;60387;49.994;14.660;2022-08-11T09:28:33;98433.38;;;28.95;29.36
71915;BME280;60387;49.994;14.660;2022-08-11T09:31:07;98428.16;;;29.01;30.00
71915;BME280;60387;49.994;14.660;2022-08-11T09:33:43;98439.66;;;29.17;29.32
71915;BME280;60387;49.994;14.660;2022-08-11T09:36:17;98431.25;;;29.24;28.79
71915;BME280;60387;49.994;14.660;2022-08-11T09:38:52;98426.97;;;28.95;28.38
71915;BME280;60387;49.994;14.660;2022-08-11T09:41:26;98430.69;;;28.50;29.10
71915;BME280;60387;49.994;14.660;2022-08-11T09:44:00;98426.72;;;28.12;29.44
71915;BME280;60387;49.994;14.660;2022-08-11T09:46:34;98422.75;;;27.89;30.25
71915;BME280;60387;49.994;14.660;2022-08-11T09:49:07;98417.91;;;27.65;29.90
71915;BME280;60387;49.994;14.660;2022-08-11T09:51:41;98413.53;;;27.50;31.13
71915;BME280;60387;49.994;14.660;2022-08-11T09:54:15;98417.91;;;27.58;30.63
71915;BME280;60387;49.994;14.660;2022-08-11T09:56:51;98416.38;;;27.74;29.92
71915;BME280;60387;49.994;14.660;2022-08-11T09:59:25;98410.03;;;27.84;30.45
71915;BME280;60387;49.994;14.660;2022-08-11T10:02:03;98412.81;;;27.91;30.11
71915;BME280;60387;49.994;14.660;2022-08-11T10:04:42;98411.97;;;27.63;29.69
71915;BME280;60387;49.994;14.660;2022-08-11T10:07:18;98402.31;;;27.15;29.81
71915;BME280;60387;49.994;14.660;2022-08-11T10:09:58;98401.81;;;26.96;30.80
71915;BME280;60387;49.994;14.660;2022-08-11T10:12:36;98401.44;;;27.01;30.83
71915;BME280;60387;49.994;14.660;2022-08-11T10:15:15;98390.41;;;27.22;30.62
71915;BME280;60387;49.994;14.660;2022-08-11T10:17:53;98380.13;;;27.36;30.48
71915;BME280;60387;49.994;14.660;2022-08-11T10:20:32;98394.06;;;27.57;28.51
71915;BME280;60387;49.994;14.660;2022-08-11T10:23:07;98395.28;;;27.87;29.68
71915;BME280;60387;49.994;14.660;2022-08-11T10:25:41;98388.53;;;28.06;28.36
71915;BME280;60387;49.994;14.660;2022-08-11T10:28:14;98386.94;;;28.08;28.39
71915;BME280;60387;49.994;14.660;2022-08-11T10:30:49;98382.94;;;28.02;28.10
71915;BME280;60387;49.994;14.660;2022-08-11T10:33:23;98383.72;;;28.06;28.91
71915;BME280;60387;49.994;14.660;2022-08-11T10:35:57;98374.16;;;28.07;28.89
71915;BME280;60387;49.994;14.660;2022-08-11T10:38:32;98372.19;;;28.08;28.21
71915;BME280;60387;49.994;14.660;2022-08-11T10:41:06;98370.59;;;28.00;27.88
71915;BME280;60387;49.994;14.660;2022-08-11T10:43:39;98367.44;;;27.84;28.75
71915;BME280;60387;49.994;14.660;2022-08-11T10:46:14;98358.31;;;27.83;28.64
71915;BME280;60387;49.994;14.660;2022-08-11T10:48:48;98367.44;;;28.08;28.75
71915;BME280;60387;49.994;14.660;2022-08-11T10:51:24;98368.53;;;28.49;28.70
71915;BME280;60387;49.994;14.660;2022-08-11T10:53:59;98364.47;;;28.75;27.18
71915;BME280;60387;49.994;14.660;2022-08-11T10:56:35;98355.66;;;28.83;27.43
71915;BME280;60387;49.994;14.660;2022-08-11T10:59:09;98357.69;;;28.79;27.51
71915;BME280;60387;49.994;14.660;2022-08-11T11:01:44;98364.09;;;28.69;27.17
71915;BME280;60387;49.994;14.660;2022-08-11T11:04:23;98347.03;;;28.53;27.21
71915;BME280;60387;49.994;14.660;2022-08-11T11:07:15;98353.06;;;28.27;28.09
71915;BME280;60387;49.994;14.660;2022-08-11T11:09:53;98355.09;;;27.92;28.25
71915;BME280;60387;49.994;14.660;2022-08-11T11:15:11;98367.81;;;27.61;28.32
71915;BME280;60387;49.994;14.660;2022-08-11T11:17:56;98364.25;;;27.57;28.33
71915;BME280;60387;49.994;14.660;2022-08-11T11:20:43;98360.66;;;27.67;27.76
71915;BME280;60387;49.994;14.660;2022-08-11T11:26:37;98350.28;;;28.06;27.91
71915;BME280;60387;49.994;14.660;2022-08-11T11:35:10;98353.50;;;27.91;26.95
71915;BME280;60387;49.994;14.660;2022-08-11T11:37:48;98354.31;;;27.95;27.62
71915;BME280;60387;49.994;14.660;2022-08-11T11:40:22;98357.06;;;28.12;27.66
71915;BME280;60387;49.994;14.660;2022-08-11T11:42:58;98357.44;;;28.21;27.95
71915;BME280;60387;49.994;14.660;2022-08-11T11:45:32;98366.63;;;28.15;28.34
71915;BME280;60387;49.994;14.660;2022-08-11T11:48:05;98355.91;;;27.96;28.24
71915;BME280;60387;49.994;14.660;2022-08-11T11:50:39;98348.75;;;27.77;27.61
71915;BME280;60387;49.994;14.660;2022-08-11T11:53:12;98349.56;;;27.78;28.34
71915;BME280;60387;49.994;14.660;2022-08-11T11:55:46;98343.19;;;27.81;28.50
71915;BME280;60387;49.994;14.660;2022-08-11T11:58:19;98356.28;;;27.98;27.86
71915;BME280;60387;49.994;14.660;2022-08-11T12:00:53;98350.31;;;28.03;27.56
71915;BME280;60387;49.994;14.660;2022-08-11T12:03:28;98341.94;;;28.06;27.95
71915;BME280;60387;49.994;14.660;2022-08-11T12:06:03;98343.09;;;28.26;28.58
71915;BME280;60387;49.994;14.660;2022-08-11T12:08:36;98343.03;;;28.54;27.43
71915;BME280;60387;49.994;14.660;2022-08-11T12:11:11;98339.41;;;28.68;26.36
71915;BME280;60387;49.994;14.660;2022-08-11T12:13:47;98338.56;;;28.78;27.45
71915;BME280;60387;49.994;14.660;2022-08-11T12:16:22;98328.25;;;28.64;27.05
71915;BME280;60387;49.994;14.660;2022-08-11T12:18:58;98321.97;;;28.46;27.41
71915;BME280;60387;49.994;14.660;2022-08-11T12:21:33;98321.66;;;28.16;26.72
71915;BME280;60387;49.994;14.660;2022-08-11T12:24:09;98324.47;;;27.88;27.56
71915;BME280;60387;49.994;14.660;2022-08-11T12:26:43;98326.44;;;27.70;28.10
71915;BME280;60387;49.994;14.660;2022-08-11T12:29:18;98320.09;;;27.70;27.25
71915;BME280;60387;49.994;14.660;2022-08-11T12:31:55;98316.13;;;27.78;27.85
71915;BME280;60387;49.994;14.660;2022-08-11T12:34:29;98312.94;;;27.93;27.95
71915;BME280;60387;49.994;14.660;2022-08-11T12:37:03;98308.50;;;28.13;27.99
71915;BME280;60387;49.994;14.660;2022-08-11T12:39:45;98301.28;;;28.33;27.44
71915;BME280;60387;49.994;14.660;2022-08-11T12:42:19;98300.03;;;28.55;27.82
71915;BME280;60387;49.994;14.660;2022-08-11T12:44:54;98291.13;;;28.78;27.00
71915;BME280;60387;49.994;14.660;2022-08-11T12:47:30;98283.91;;;28.98;26.74
71915;BME280;60387;49.994;14.660;2022-08-11T12:50:05;98293.44;;;29.00;26.35
71915;BME280;60387;49.994;14.660;2022-08-11T12:52:44;98281.91;;;28.91;26.62
71915;BME280;60387;49.994;14.660;2022-08-11T12:55:22;98286.38;;;28.78;26.33
71915;BME280;60387;49.994;14.660;2022-08-11T12:57:57;98289.69;;;28.56;26.27
71915;BME280;60387;49.994;14.660;2022-08-11T13:00:31;98288.53;;;28.29;26.61
71915;BME280;60387;49.994;14.660;2022-08-11T13:03:06;98269.13;;;28.08;26.73
71915;BME280;60387;49.994;14.660;2022-08-11T13:05:41;98285.88;;;27.83;26.55
71915;BME280;60387;49.994;14.660;2022-08-11T13:08:16;98279.91;;;27.67;26.81
71915;BME280;60387;49.994;14.660;2022-08-11T13:10:51;98277.94;;;27.54;27.60
71915;BME280;60387;49.994;14.660;2022-08-11T13:13:25;98275.53;;;27.56;27.48
71915;BME280;60387;49.994;14.660;2022-08-11T13:15:59;98289.06;;;27.54;27.66
71915;BME280;60387;49.994;14.660;2022-08-11T13:18:33;98288.69;;;27.48;27.06
71915;BME280;60387;49.994;14.660;2022-08-11T13:21:08;98284.28;;;27.51;27.19
71915;BME280;60387;49.994;14.660;2022-08-11T13:23:42;98275.53;;;27.59;27.65
71915;BME280;60387;49.994;14.660;2022-08-11T13:26:16;98278.31;;;27.66;27.27
71915;BME280;60387;49.994;14.660;2022-08-11T13:28:50;98272.34;;;27.64;26.89
71915;BME280;60387;49.994;14.660;2022-08-11T13:31:24;98269.97;;;27.70;26.84
71915;BME280;60387;49.994;14.660;2022-08-11T13:33:58;98267.19;;;27.70;26.19
71915;BME280;60387;49.994;14.660;2022-08-11T13:36:31;98279.50;;;27.72;26.94
71915;BME280;60387;49.994;14.660;2022-08-11T13:39:05;98257.25;;;27.76;26.52
71915;BME280;60387;49.994;14.660;2022-08-11T13:41:40;98264.41;;;27.77;26.79
71915;BME280;60387;49.994;14.660;2022-08-11T13:44:16;98262.41;;;27.77;27.05
71915;BME280;60387;49.994;14.660;2022-08-11T13:46:50;98249.69;;;27.83;26.79
71915;BME280;60387;49.994;14.660;2022-08-11T13:49:24;98249.25;;;27.99;26.42
71915;BME280;60387;49.994;14.660;2022-08-11T13:51:58;98243.22;;;28.14;26.38
71915;BME280;60387;49.994;14.660;2022-08-11T13:54:35;98234.78;;;28.32;26.21
71915;BME280;60387;49.994;14.660;2022-08-11T13:57:10;98245.47;;;28.51;26.10
71915;BME280;60387;49.994;14.660;2022-08-11T13:59:45;98239.50;;;28.56;26.01
71915;BME280;60387;49.994;14.660;2022-08-11T14:02:26;98238.69;;;28.52;25.72
71915;BME280;60387;49.994;14.660;2022-08-11T14:07:50;98236.50;;;28.08;25.58
71915;BME280;60387;49.994;14.660;2022-08-11T14:10:27;98222.97;;;28.00;26.16
71915;BME280;60387;49.994;14.660;2022-08-11T14:13:06;98224.53;;;28.11;25.82
71915;BME280;60387;49.994;14.660;2022-08-11T14:15:42;98214.13;;;28.22;26.03
71915;BME280;60387;49.994;14.660;2022-08-11T14:18:19;98210.94;;;28.27;26.14
71915;BME280;60387;49.994;14.660;2022-08-11T14:20:55;98204.91;;;28.43;25.88
71915;BME280;60387;49.994;14.660;2022-08-11T14:23:53;98220.41;;;28.44;24.53
71915;BME280;60387;49.994;14.660;2022-08-11T14:26:26;98226.44;;;28.35;25.23
71915;BME280;60387;49.994;14.660;2022-08-11T14:29:12;98220.50;;;28.23;25.97
71915;BME280;60387;49.994;14.660;2022-08-11T14:31:51;98205.44;;;28.06;25.35
71915;BME280;60387;49.994;14.660;2022-08-11T14:34:26;98203.84;;;28.02;25.46
71915;BME280;60387;49.994;14.660;2022-08-11T14:37:11;98200.28;;;28.01;26.25
71915;BME280;60387;49.994;14.660;2022-08-11T14:39:59;98195.84;;;28.18;26.20
71915;BME280;60387;49.994;14.660;2022-08-11T14:42:36;98200.53;;;28.38;25.73
71915;BME280;60387;49.994;14.660;2022-08-11T14:45:11;98198.88;;;28.51;25.48
71915;BME280;60387;49.994;14.660;2022-08-11T14:47:50;98200.44;;;28.59;25.61
71915;BME280;60387;49.994;14.660;2022-08-11T14:50:26;98204.84;;;28.53;25.56
71915;BME280;60387;49.994;14.660;2022-08-11T14:53:02;98194.56;;;28.43;25.49
71915;BME280;60387;49.994;14.660;2022-08-11T14:55:38;98190.97;;;28.32;25.37
71915;BME280;60387;49.994;14.660;2022-08-11T14:58:18;98183.50;;;28.15;25.19
71915;BME280;60387;49.994;14.660;2022-08-11T15:00:53;98199.91;;;27.99;25.96
71915;BME280;60387;49.994;14.660;2022-08-11T15:03:29;98195.16;;;27.86;25.86
71915;BME280;60387;49.994;14.660;2022-08-11T15:06:03;98185.66;;;27.76;25.68
71915;BME280;60387;49.994;14.660;2022-08-11T15:08:37;98185.66;;;27.62;25.90
71915;BME280;60387;49.994;14.660;2022-08-11T15:11:13;98172.94;;;27.47;26.60
71915;BME280;60387;49.994;14.660;2022-08-11T15:13:47;98185.72;;;27.34;26.42
71915;BME280;60387;49.994;14.660;2022-08-11T15:16:21;98181.34;;;27.20;26.27
71915;BME280;60387;49.994;14.660;2022-08-11T15:18:56;98179.38;;;27.13;26.90
71915;BME280;60387;49.994;14.660;2022-08-11T15:21:29;98162.63;;;26.96;27.19
71915;BME280;60387;49.994;14.660;2022-08-11T15:24:03;98161.84;;;26.92;27.18
71915;BME280;60387;49.994;14.660;2022-08-11T15:26:40;98156.28;;;26.88;26.99
71915;BME280;60387;49.994;14.660;2022-08-11T15:29:19;98165.03;;;26.94;27.60
71915;BME280;60387;49.994;14.660;2022-08-11T15:31:52;98163.06;;;26.98;27.09
71915;BME280;60387;49.994;14.660;2022-08-11T15:34:27;98159.88;;;27.03;26.98
71915;BME280;60387;49.994;14.660;2022-08-11T15:37:05;98153.91;;;27.08;26.85
71915;BME280;60387;49.994;14.660;2022-08-11T15:39:50;98150.31;;;27.11;27.46
71915;BME280;60387;49.994;14.660;2022-08-11T15:42:24;98185.28;;;27.12;27.36
71915;BME280;60387;49.994;14.660;2022-08-11T15:44:59;98168.22;;;27.06;27.06
71915;BME280;60387;49.994;14.660;2022-08-11T15:47:41;98159.88;;;26.85;27.50
71915;BME280;60387;49.994;14.660;2022-08-11T15:50:18;98161.84;;;26.67;27.67
71915;BME280;60387;49.994;14.660;2022-08-11T15:52:55;98166.53;;;26.46;27.67
71915;BME280;60387;49.994;14.660;2022-08-11T15:55:31;98169.69;;;26.30;27.36
71915;BME280;60387;49.994;14.660;2022-08-11T15:58:07;98158.56;;;26.34;27.59
71915;BME280;60387;49.994;14.660;2022-08-11T16:00:42;98149.84;;;26.32;27.74
71915;BME280;60387;49.994;14.660;2022-08-11T16:03:18;98156.19;;;26.36;27.91
71915;BME280;60387;49.994;14.660;2022-08-11T16:05:52;98168.88;;;26.23;27.71
71915;BME280;60387;49.994;14.660;2022-08-11T16:08:27;98156.19;;;26.22;27.60
71915;BME280;60387;49.994;14.660;2022-08-11T16:11:01;98160.94;;;26.21;27.78
71915;BME280;60387;49.994;14.660;2022-08-11T16:13:38;98156.19;;;26.22;27.93
71915;BME280;60387;49.994;14.660;2022-08-11T16:16:12;98154.56;;;26.17;27.70
71915;BME280;60387;49.994;14.660;2022-08-11T16:18:53;98164.50;;;26.18;27.57
71915;BME280;60387;49.994;14.660;2022-08-11T16:21:32;98167.66;;;26.17;27.72
71915;BME280;60387;49.994;14.660;2022-08-11T16:24:10;98156.94;;;26.08;27.93
71915;BME280;60387;49.994;14.660;2022-08-11T16:26:45;98153.75;;;26.10;27.71
71915;BME280;60387;49.994;14.660;2022-08-11T16:29:20;98148.19;;;26.10;27.63
71915;BME280;60387;49.994;14.660;2022-08-11T16:31:55;98149.38;;;26.09;28.38
71915;BME280;60387;49.994;14.660;2022-08-11T16:34:30;98154.13;;;26.05;28.04
71915;BME280;60387;49.994;14.660;2022-08-11T16:37:05;98140.63;;;26.00;28.30
71915;BME280;60387;49.994;14.660;2022-08-11T16:39:38;98138.63;;;25.97;27.95
71915;BME280;60387;49.994;14.660;2022-08-11T16:42:13;98147.31;;;25.88;28.13
71915;BME280;60387;49.994;14.660;2022-08-11T16:44:47;98129.06;;;25.87;27.92